UAL7090 KLAX-KLAS
Flight info
| Callsign | UAL7090 |
|---|---|
| Flight time | N/A |
| Altitude | 29000 |
| Route | ORCKA5 MISEN RNDRZ4 |
| Aircraft | B738/M-SDE2E3FGHIRWXY/LB1 |
Departure
| Time | 2026-05-06 01:35 |
|---|---|
| Airport | Los Angeles International Airport (KLAX) |
Arrival
| Time | N/A |
|---|---|
| Airport | Harry Reid International Airport (KLAS) |
| Time | Latitude | Longitude | Altitude | Speed | Heading |
|---|---|---|---|---|---|
| 2026-05-06 00:38 | 33.93942 | -118.41066 | 125 ft | 0 kts | 83° |
| 2026-05-06 01:13 | 33.93941 | -118.41075 | 123 ft | 2 kts | 80° |
| 2026-05-06 01:13 | 33.93939 | -118.41091 | 122 ft | 1 kts | 76° |
| 2026-05-06 01:13 | 33.93936 | -118.41105 | 122 ft | 1 kts | 71° |
| 2026-05-06 01:14 | 33.93926 | -118.41133 | 121 ft | 2 kts | 56° |
| 2026-05-06 01:14 | 33.93918 | -118.41145 | 121 ft | 2 kts | 44° |
| 2026-05-06 01:14 | 33.93908 | -118.41155 | 121 ft | 2 kts | 29° |
| 2026-05-06 01:15 | 33.93897 | -118.41162 | 122 ft | 2 kts | 14° |
| 2026-05-06 01:15 | 33.93885 | -118.41164 | 122 ft | 2 kts | 0° |
| 2026-05-06 01:15 | 33.93875 | -118.41164 | 125 ft | 1 kts | 353° |
| 2026-05-06 01:20 | 33.93888 | -118.41167 | 120 ft | 5 kts | 339° |
| 2026-05-06 01:20 | 33.93878 | -118.41193 | 125 ft | 7 kts | 196° |
| 2026-05-06 01:20 | 33.93805 | -118.41157 | 122 ft | 16 kts | 162° |
| 2026-05-06 01:21 | 33.93768 | -118.41071 | 124 ft | 12 kts | 87° |
| 2026-05-06 01:21 | 33.93774 | -118.41021 | 125 ft | 10 kts | 83° |
| 2026-05-06 01:21 | 33.93781 | -118.40950 | 125 ft | 9 kts | 83° |
| 2026-05-06 01:21 | 33.93786 | -118.40909 | 125 ft | 9 kts | 83° |
| 2026-05-06 01:22 | 33.93798 | -118.40793 | 123 ft | 19 kts | 83° |
| 2026-05-06 01:22 | 33.93804 | -118.40738 | 122 ft | 8 kts | 83° |
| 2026-05-06 01:22 | 33.93815 | -118.40629 | 125 ft | 18 kts | 83° |
| 2026-05-06 01:22 | 33.93821 | -118.40577 | 125 ft | 4 kts | 83° |
| 2026-05-06 01:23 | 33.93829 | -118.40500 | 123 ft | 15 kts | 83° |
| 2026-05-06 01:23 | 33.93833 | -118.40464 | 125 ft | 0 kts | 83° |
| 2026-05-06 01:23 | 33.93836 | -118.40434 | 125 ft | 9 kts | 83° |
| 2026-05-06 01:24 | 33.93839 | -118.40404 | 121 ft | 8 kts | 83° |
| 2026-05-06 01:24 | 33.93850 | -118.40304 | 125 ft | 0 kts | 83° |
| 2026-05-06 01:24 | 33.93852 | -118.40284 | 125 ft | 7 kts | 83° |
| 2026-05-06 01:24 | 33.93863 | -118.40180 | 125 ft | 18 kts | 83° |
| 2026-05-06 01:25 | 33.93867 | -118.40141 | 121 ft | 6 kts | 83° |
| 2026-05-06 01:25 | 33.93877 | -118.40046 | 125 ft | 17 kts | 83° |
| 2026-05-06 01:25 | 33.93896 | -118.39870 | 123 ft | 26 kts | 83° |
| 2026-05-06 01:25 | 33.93920 | -118.39627 | 125 ft | 33 kts | 84° |
| 2026-05-06 01:26 | 33.93938 | -118.39428 | 123 ft | 13 kts | 84° |
| 2026-05-06 01:26 | 33.93951 | -118.39283 | 125 ft | 22 kts | 84° |
| 2026-05-06 01:26 | 33.93974 | -118.39066 | 125 ft | 20 kts | 81° |
| 2026-05-06 01:26 | 33.93989 | -118.38945 | 125 ft | 19 kts | 81° |
| 2026-05-06 01:27 | 33.94013 | -118.38748 | 122 ft | 28 kts | 82° |
| 2026-05-06 01:27 | 33.94032 | -118.38495 | 125 ft | 17 kts | 82° |
| 2026-05-06 01:27 | 33.94044 | -118.38384 | 125 ft | 18 kts | 82° |
| 2026-05-06 01:27 | 33.94060 | -118.38226 | 125 ft | 4 kts | 84° |
| 2026-05-06 01:28 | 33.94067 | -118.38148 | 125 ft | 15 kts | 82° |
| 2026-05-06 01:28 | 33.94076 | -118.38071 | 125 ft | 5 kts | 82° |
| 2026-05-06 01:28 | 33.94076 | -118.38039 | 125 ft | 2 kts | 105° |
| 2026-05-06 01:28 | 33.94076 | -118.38037 | 125 ft | 0 kts | 105° |
| 2026-05-06 01:33 | 33.94075 | -118.38035 | 125 ft | 3 kts | 105° |
| 2026-05-06 01:34 | 33.94026 | -118.37996 | 121 ft | 16 kts | 179° |
| 2026-05-06 01:34 | 33.93957 | -118.38192 | 125 ft | 56 kts | 260° |
| 2026-05-06 01:34 | 33.93877 | -118.38984 | 125 ft | 132 kts | 263° |
| 2026-05-06 01:34 | 33.93747 | -118.40336 | 254 ft | 184 kts | 263° |
| 2026-05-06 01:35 | 33.93584 | -118.42011 | 676 ft | 216 kts | 263° |
| 2026-05-06 01:35 | 33.93394 | -118.43901 | 1345 ft | 231 kts | 263° |
| 2026-05-06 01:35 | 33.93196 | -118.45826 | 2271 ft | 231 kts | 262° |
| 2026-05-06 01:35 | 33.92798 | -118.47715 | 2797 ft | 235 kts | 250° |
| 2026-05-06 01:36 | 33.92196 | -118.49560 | 3340 ft | 238 kts | 248° |
| 2026-05-06 01:36 | 33.91552 | -118.51410 | 3869 ft | 241 kts | 247° |
| 2026-05-06 01:36 | 33.90879 | -118.53296 | 4270 ft | 253 kts | 247° |
| 2026-05-06 01:36 | 33.90165 | -118.55299 | 4681 ft | 265 kts | 247° |
| 2026-05-06 01:37 | 33.89436 | -118.57357 | 5419 ft | 267 kts | 247° |
| 2026-05-06 01:37 | 33.88647 | -118.59385 | 6184 ft | 270 kts | 235° |
| 2026-05-06 01:37 | 33.87236 | -118.60804 | 6845 ft | 273 kts | 201° |
| 2026-05-06 01:37 | 33.85363 | -118.61053 | 7538 ft | 277 kts | 169° |
| 2026-05-06 01:38 | 33.83570 | -118.60204 | 8218 ft | 280 kts | 146° |
| 2026-05-06 01:38 | 33.82188 | -118.58552 | 8869 ft | 284 kts | 122° |
| 2026-05-06 01:38 | 33.81498 | -118.56330 | 9519 ft | 288 kts | 95° |
| 2026-05-06 01:38 | 33.81728 | -118.53951 | 10165 ft | 290 kts | 67° |
| 2026-05-06 01:39 | 33.82892 | -118.51919 | 10443 ft | 308 kts | 41° |
| 2026-05-06 01:39 | 33.84675 | -118.50358 | 10622 ft | 328 kts | 32° |
| 2026-05-06 01:39 | 33.86671 | -118.48864 | 10791 ft | 348 kts | 31° |
| 2026-05-06 01:39 | 33.88747 | -118.47271 | 11169 ft | 359 kts | 32° |
| 2026-05-06 01:40 | 33.90845 | -118.45602 | 11765 ft | 363 kts | 33° |
| 2026-05-06 01:40 | 33.92832 | -118.43718 | 12389 ft | 366 kts | 44° |
| 2026-05-06 01:40 | 33.94480 | -118.41370 | 13020 ft | 369 kts | 55° |
| 2026-05-06 01:40 | 33.95889 | -118.38776 | 13633 ft | 372 kts | 56° |
| 2026-05-06 01:41 | 33.97333 | -118.36165 | 14209 ft | 375 kts | 56° |
| 2026-05-06 01:41 | 33.98806 | -118.33555 | 14773 ft | 379 kts | 55° |
| 2026-05-06 01:41 | 34.00300 | -118.30920 | 14983 ft | 382 kts | 55° |
| 2026-05-06 01:41 | 34.01800 | -118.28279 | 14994 ft | 380 kts | 55° |
| 2026-05-06 01:42 | 34.03295 | -118.25644 | 14999 ft | 381 kts | 55° |
| 2026-05-06 01:42 | 34.04788 | -118.23011 | 15007 ft | 381 kts | 55° |
| 2026-05-06 01:42 | 34.06286 | -118.20367 | 15006 ft | 382 kts | 55° |
| 2026-05-06 01:42 | 34.07781 | -118.17724 | 15008 ft | 382 kts | 55° |
| 2026-05-06 01:43 | 34.09263 | -118.15105 | 15005 ft | 382 kts | 55° |
| 2026-05-06 01:43 | 34.10762 | -118.12451 | 15002 ft | 382 kts | 56° |
| 2026-05-06 01:43 | 34.12258 | -118.09801 | 15001 ft | 382 kts | 56° |
| 2026-05-06 01:43 | 34.13759 | -118.07142 | 15005 ft | 383 kts | 56° |
| 2026-05-06 01:44 | 34.15272 | -118.04459 | 15168 ft | 393 kts | 56° |
| 2026-05-06 01:44 | 34.16830 | -118.01694 | 15485 ft | 402 kts | 56° |
| 2026-05-06 01:44 | 34.18410 | -117.98886 | 15950 ft | 406 kts | 56° |
| 2026-05-06 01:44 | 34.20007 | -117.96046 | 16393 ft | 411 kts | 56° |
| 2026-05-06 01:45 | 34.21616 | -117.93181 | 16869 ft | 413 kts | 56° |
| 2026-05-06 01:45 | 34.23238 | -117.90292 | 17346 ft | 416 kts | 56° |
| 2026-05-06 01:45 | 34.24863 | -117.87394 | 17879 ft | 417 kts | 56° |
| 2026-05-06 01:45 | 34.26491 | -117.84490 | 18367 ft | 419 kts | 56° |
| 2026-05-06 01:46 | 34.28136 | -117.81552 | 18738 ft | 424 kts | 56° |
| 2026-05-06 01:46 | 34.29781 | -117.78613 | 19007 ft | 430 kts | 56° |
| 2026-05-06 01:46 | 34.31462 | -117.75606 | 19393 ft | 431 kts | 56° |
| 2026-05-06 01:46 | 34.33146 | -117.72592 | 19749 ft | 434 kts | 56° |
| 2026-05-06 01:47 | 34.34844 | -117.69551 | 20111 ft | 437 kts | 56° |
| 2026-05-06 01:47 | 34.36576 | -117.66515 | 20359 ft | 441 kts | 54° |
| 2026-05-06 01:47 | 34.38372 | -117.63496 | 20686 ft | 443 kts | 54° |
| 2026-05-06 01:47 | 34.40189 | -117.60488 | 21097 ft | 443 kts | 53° |
| 2026-05-06 01:48 | 34.42009 | -117.57481 | 21501 ft | 443 kts | 53° |
| 2026-05-06 01:48 | 34.43832 | -117.54457 | 21856 ft | 445 kts | 54° |
| 2026-05-06 01:48 | 34.45656 | -117.51418 | 22188 ft | 447 kts | 54° |
| 2026-05-06 01:48 | 34.47482 | -117.48360 | 22519 ft | 449 kts | 54° |
| 2026-05-06 01:49 | 34.49317 | -117.45280 | 22846 ft | 451 kts | 54° |
| 2026-05-06 01:49 | 34.51154 | -117.42189 | 23167 ft | 453 kts | 54° |
| 2026-05-06 01:49 | 34.53001 | -117.39078 | 23477 ft | 455 kts | 54° |
| 2026-05-06 01:49 | 34.54855 | -117.35951 | 23776 ft | 457 kts | 54° |
| 2026-05-06 01:50 | 34.56712 | -117.32816 | 24071 ft | 459 kts | 54° |
| 2026-05-06 01:50 | 34.58553 | -117.29707 | 24353 ft | 461 kts | 54° |
| 2026-05-06 01:50 | 34.60427 | -117.26540 | 24608 ft | 463 kts | 54° |
| 2026-05-06 01:50 | 34.62312 | -117.23351 | 24866 ft | 465 kts | 54° |